Time;durP1;ratioP1;P1;durP2;ratioP2;P2;SDS_P1;SDS_P2;PMS_P1;PMS_P2;Temp;Humidity;BMP_temperature;BMP_pressure;BME280_temperature;BME280_humidity;BME280_pressure;Samples;Min_cycle;Max_cycle;Signal;HPM_P1;HPM_P2
2021/12/23 00:01:23;;;;;;;16.95;8.93;;;-4.10;86.90;;;;;;5052255;28;20095;-80
2021/12/23 00:03:49;;;;;;;20.70;10.25;;;-4.10;87.00;;;;;;5038828;28;20118;-79
2021/12/23 00:06:14;;;;;;;22.23;10.43;;;-4.10;87.00;;;;;;5037213;28;20057;-81
2021/12/23 00:08:40;;;;;;;18.40;10.52;;;-4.10;87.10;;;;;;5019792;28;20635;-79
2021/12/23 00:11:05;;;;;;;19.42;10.38;;;-4.10;87.10;;;;;;5006611;28;20517;-78
2021/12/23 00:13:33;;;;;;;22.58;10.73;;;-4.10;87.10;;;;;;5005642;28;20048;-79
2021/12/23 00:23:47;;;;;;;23.05;13.38;;;-4.10;87.20;;;;;;5023619;28;20102;-79
2021/12/23 00:26:13;;;;;;;27.17;15.20;;;-4.00;87.30;;;;;;5018980;28;20059;-79
2021/12/23 00:28:38;;;;;;;23.58;12.82;;;-4.00;87.30;;;;;;5002453;28;20037;-79
2021/12/23 00:31:05;;;;;;;19.48;10.50;;;-4.00;87.30;;;;;;5004160;28;20487;-79
2021/12/23 00:33:30;;;;;;;20.30;10.55;;;-4.00;87.30;;;;;;5041256;28;20045;-80
2021/12/23 00:35:56;;;;;;;18.15;9.93;;;-4.00;87.30;;;;;;5022083;28;20517;-80
2021/12/23 00:38:29;;;;;;;17.58;9.95;;;-4.00;87.30;;;;;;5023807;28;20120;-80
2021/12/23 00:40:57;;;;;;;20.02;10.57;;;-4.00;87.30;;;;;;5026153;28;20495;-80
2021/12/23 00:43:23;;;;;;;18.17;9.45;;;-4.00;87.30;;;;;;5020777;28;20044;-79
2021/12/23 00:45:48;;;;;;;17.88;10.07;;;-4.00;87.30;;;;;;5025315;28;20457;-80
2021/12/23 00:48:15;;;;;;;19.75;9.77;;;-4.00;87.40;;;;;;5010516;28;20032;-80
2021/12/23 00:50:40;;;;;;;20.60;10.10;;;-4.00;87.50;;;;;;5025419;28;20095;-80
2021/12/23 00:53:08;;;;;;;19.83;11.05;;;-4.00;87.50;;;;;;5000567;28;20041;-81
2021/12/23 00:55:34;;;;;;;20.65;10.93;;;-4.00;87.60;;;;;;5029303;28;20033;-78
2021/12/23 00:58:00;;;;;;;17.65;10.23;;;-4.00;87.60;;;;;;5011090;28;20051;-80
2021/12/23 01:00:25;;;;;;;19.45;10.27;;;-3.90;87.60;;;;;;5027007;28;20586;-80
2021/12/23 01:02:51;;;;;;;17.05;9.38;;;-3.90;87.70;;;;;;5022810;28;20041;-79
2021/12/23 01:05:19;;;;;;;16.60;9.77;;;-3.90;87.60;;;;;;5009567;28;20033;-80
2021/12/23 01:07:44;;;;;;;16.30;9.60;;;-3.90;87.60;;;;;;5054592;28;20033;-80
2021/12/23 01:10:10;;;;;;;17.38;9.57;;;-3.90;87.70;;;;;;5022949;28;20029;-79
2021/12/23 01:12:52;;;;;;;17.33;9.45;;;-3.90;87.70;;;;;;5037941;28;20079;-79
2021/12/23 01:17:53;;;;;;;17.00;9.73;;;-3.90;87.80;;;;;;5041983;28;20032;-80
2021/12/23 01:20:27;;;;;;;20.75;11.10;;;-3.90;87.80;;;;;;5039196;28;20040;-79
2021/12/23 01:22:54;;;;;;;20.77;11.45;;;-3.80;87.90;;;;;;5004044;28;20037;-80
2021/12/23 01:25:20;;;;;;;20.90;10.60;;;-3.80;87.90;;;;;;5039303;28;20033;-81
2021/12/23 01:27:46;;;;;;;20.08;10.77;;;-3.80;87.90;;;;;;5027089;28;20642;-79
2021/12/23 01:30:13;;;;;;;22.27;10.45;;;-3.70;88.00;;;;;;5021888;28;20579;-80
2021/12/23 01:32:39;;;;;;;17.77;9.93;;;-3.70;88.10;;;;;;4997479;28;20030;-79
2021/12/23 01:35:05;;;;;;;19.52;10.98;;;-3.70;88.00;;;;;;5053176;28;20702;-81
2021/12/23 01:37:31;;;;;;;22.30;11.35;;;-3.70;88.00;;;;;;5020681;28;20040;-80
2021/12/23 01:39:56;;;;;;;20.05;11.13;;;-3.70;88.00;;;;;;5024466;28;20041;-80
2021/12/23 01:42:22;;;;;;;21.85;11.40;;;-3.70;88.00;;;;;;5039681;28;20033;-79
2021/12/23 01:44:47;;;;;;;22.25;10.70;;;-3.70;88.10;;;;;;5026474;28;20657;-80
2021/12/23 01:47:13;;;;;;;24.63;10.80;;;-3.60;88.10;;;;;;5009564;28;20480;-79
2021/12/23 01:49:38;;;;;;;22.38;10.63;;;-3.60;88.10;;;;;;5019024;28;20021;-80
2021/12/23 01:52:04;;;;;;;23.45;11.82;;;-3.60;88.20;;;;;;5024637;28;20083;-80
2021/12/23 01:54:30;;;;;;;23.48;11.48;;;-3.60;88.20;;;;;;5021338;28;20078;-79
2021/12/23 01:56:55;;;;;;;18.33;10.70;;;-3.60;88.20;;;;;;5030539;28;20025;-79
2021/12/23 01:59:21;;;;;;;19.30;9.77;;;-3.60;88.20;;;;;;5009366;28;20037;-79
2021/12/23 02:01:46;;;;;;;19.88;10.85;;;-3.50;88.30;;;;;;5024095;28;20068;-79
2021/12/23 02:04:12;;;;;;;17.33;11.02;;;-3.60;88.20;;;;;;5024765;28;20673;-79
2021/12/23 02:06:37;;;;;;;20.80;11.50;;;-3.60;88.20;;;;;;5023026;28;20059;-78
2021/12/23 02:09:03;;;;;;;17.42;10.05;;;-3.50;88.30;;;;;;5014749;28;20766;-80
2021/12/23 02:11:29;;;;;;;18.63;9.95;;;-3.50;88.20;;;;;;5037564;28;20131;-80
2021/12/23 02:13:54;;;;;;;23.60;11.73;;;-3.50;88.20;;;;;;5021072;28;20046;-80
2021/12/23 02:16:20;;;;;;;18.70;10.48;;;-3.50;88.30;;;;;;5022099;28;20072;-80
2021/12/23 02:18:45;;;;;;;25.65;11.70;;;-3.50;88.30;;;;;;5021370;28;20119;-80
2021/12/23 02:21:11;;;;;;;20.23;10.00;;;-3.50;88.20;;;;;;5007956;28;20045;-80
2021/12/23 02:23:37;;;;;;;17.50;10.35;;;-3.60;88.10;;;;;;5023554;28;20086;-79
2021/12/23 02:26:03;;;;;;;20.02;10.02;;;-3.60;88.10;;;;;;5019035;28;20486;-80
2021/12/23 02:28:29;;;;;;;21.10;10.40;;;-3.70;88.00;;;;;;5028332;28;20044;-79
2021/12/23 02:30:54;;;;;;;20.75;10.73;;;-3.70;88.00;;;;;;5011746;28;20034;-80
2021/12/23 02:33:21;;;;;;;20.95;11.13;;;-3.70;88.10;;;;;;5038958;28;20053;-80
2021/12/23 02:35:47;;;;;;;24.13;10.88;;;-3.70;88.10;;;;;;5012723;28;20032;-79
2021/12/23 02:38:12;;;;;;;18.52;10.30;;;-3.70;88.10;;;;;;5023032;28;20040;-81
2021/12/23 02:40:39;;;;;;;20.65;10.18;;;-3.70;88.20;;;;;;5009971;28;20033;-80
2021/12/23 02:43:11;;;;;;;20.35;10.75;;;-3.70;88.20;;;;;;5021588;28;20064;-79
2021/12/23 02:45:36;;;;;;;;;;;-3.70;88.30;;;;;;5034766;28;20040;-80
2021/12/23 02:48:02;;;;;;;15.40;9.57;;;-3.70;88.20;;;;;;5021414;28;19920;-80
2021/12/23 02:50:27;;;;;;;20.15;9.88;;;-3.70;88.10;;;;;;5019005;28;20564;-79
2021/12/23 02:52:53;;;;;;;18.58;9.98;;;-3.80;88.10;;;;;;5026735;28;20116;-81
2021/12/23 02:55:19;;;;;;;17.88;9.77;;;-3.80;88.10;;;;;;5020630;28;20032;-80
2021/12/23 02:57:45;;;;;;;17.73;9.55;;;-3.80;88.20;;;;;;5005780;28;20435;-79
2021/12/23 03:00:11;;;;;;;19.92;10.73;;;-3.80;88.20;;;;;;5019608;28;20036;-79
2021/12/23 03:02:38;;;;;;;20.70;11.27;;;-3.80;88.30;;;;;;5014892;28;20124;-79
2021/12/23 03:05:04;;;;;;;23.58;11.23;;;-3.80;88.20;;;;;;4988456;28;20033;-82
2021/12/23 03:07:29;;;;;;;23.85;10.68;;;-3.80;88.20;;;;;;5018703;28;20037;-79
2021/12/23 03:09:55;;;;;;;20.65;10.82;;;-3.80;88.20;;;;;;5023982;28;20044;-79
2021/12/23 03:12:20;;;;;;;21.40;10.73;;;-3.80;88.20;;;;;;5023210;28;20519;-79
2021/12/23 03:14:46;;;;;;;18.27;9.95;;;-3.80;88.20;;;;;;5014564;28;20065;-80
2021/12/23 03:17:11;;;;;;;19.23;10.13;;;-3.90;88.10;;;;;;5025852;28;20471;-80
2021/12/23 03:19:37;;;;;;;20.42;10.38;;;-3.90;88.00;;;;;;5012665;28;20038;-80
2021/12/23 03:22:03;;;;;;;19.05;10.55;;;-4.00;88.10;;;;;;5003027;28;20506;-79
2021/12/23 03:24:28;;;;;;;19.83;10.32;;;-4.00;88.10;;;;;;5002532;28;20040;-80
2021/12/23 03:26:54;;;;;;;19.25;10.50;;;-4.00;88.20;;;;;;4991628;28;20122;-79
2021/12/23 03:29:19;;;;;;;20.08;10.27;;;-4.00;88.20;;;;;;5005613;28;20108;-79
2021/12/23 03:31:45;;;;;;;16.35;9.27;;;-4.00;88.20;;;;;;4998538;28;20037;-80
2021/12/23 03:34:10;;;;;;;22.15;11.20;;;-4.00;88.30;;;;;;5012810;28;20331;-79
2021/12/23 03:36:36;;;;;;;18.20;9.85;;;-4.10;88.20;;;;;;5023542;28;20495;-79
2021/12/23 03:39:01;;;;;;;21.08;10.50;;;-4.00;88.30;;;;;;5022771;28;20530;-80
2021/12/23 03:41:27;;;;;;;16.63;9.95;;;-4.00;88.80;;;;;;5015854;28;20534;-79
2021/12/23 03:43:52;;;;;;;18.15;9.98;;;-4.00;88.30;;;;;;4998832;28;20037;-79
2021/12/23 03:46:18;;;;;;;20.60;9.60;;;-4.10;88.20;;;;;;5016448;28;20030;-79
2021/12/23 03:48:44;;;;;;;16.50;9.45;;;-4.10;88.20;;;;;;4987485;28;20550;-81
2021/12/23 03:51:09;;;;;;;16.77;9.52;;;-4.20;88.00;;;;;;5038825;28;20039;-80
2021/12/23 03:53:35;;;;;;;16.02;10.52;;;-4.20;88.10;;;;;;4997980;28;20431;-80
2021/12/23 03:56:00;;;;;;;17.70;9.77;;;-4.30;88.00;;;;;;5022890;28;20035;-80
2021/12/23 03:58:26;;;;;;;20.52;9.98;;;-4.30;88.10;;;;;;5012833;28;20771;-80
2021/12/23 04:00:51;;;;;;;19.67;10.70;;;-4.30;88.20;;;;;;4991690;28;20403;-79
2021/12/23 04:03:17;;;;;;;19.25;10.60;;;-4.30;88.20;;;;;;5010910;28;20535;-81
2021/12/23 04:05:42;;;;;;;17.65;10.23;;;-4.30;88.30;;;;;;5010913;28;20352;-80
2021/12/23 04:08:08;;;;;;;20.63;9.90;;;-4.30;88.30;;;;;;5041166;28;20439;-82
2021/12/23 04:10:34;;;;;;;19.60;10.32;;;-4.30;88.30;;;;;;5019005;28;20029;-79
2021/12/23 04:12:59;;;;;;;19.05;9.45;;;-4.30;88.40;;;;;;5018205;28;21067;-80
2021/12/23 04:15:25;;;;;;;19.83;10.70;;;-4.30;88.40;;;;;;5018205;28;20056;-80
2021/12/23 04:17:50;;;;;;;17.75;10.20;;;-4.30;88.40;;;;;;5008430;28;20026;-80
2021/12/23 04:20:19;;;;;;;18.33;10.23;;;-4.30;88.40;;;;;;4997178;28;20036;-79
2021/12/23 04:22:46;;;;;;;23.10;11.52;;;-4.30;88.40;;;;;;5005005;28;20022;-81
2021/12/23 04:25:12;;;;;;;18.17;9.50;;;-4.30;88.40;;;;;;4996185;28;20081;-81
2021/12/23 04:27:37;;;;;;;20.05;10.73;;;-4.30;88.40;;;;;;5013486;28;20033;-81
2021/12/23 04:30:04;;;;;;;20.70;11.30;;;-4.30;88.40;;;;;;5043304;28;20026;-79
2021/12/23 04:32:30;;;;;;;21.60;11.93;;;-4.30;88.50;;;;;;5013424;28;20075;-80
2021/12/23 04:34:55;;;;;;;25.80;14.65;;;-4.30;88.50;;;;;;4986248;28;20033;-81
2021/12/23 04:37:21;;;;;;;26.88;14.63;;;-4.30;88.60;;;;;;5013091;28;20542;-81
2021/12/23 04:39:46;;;;;;;28.25;14.48;;;-4.30;88.50;;;;;;4987872;28;20515;-81
2021/12/23 04:42:12;;;;;;;22.63;11.63;;;-4.20;88.60;;;;;;5025117;28;20041;-80
2021/12/23 04:44:37;;;;;;;24.60;12.13;;;-4.20;88.60;;;;;;5017154;28;20033;-80
2021/12/23 04:47:03;;;;;;;19.02;10.82;;;-4.20;88.60;;;;;;5001836;28;20034;-80
2021/12/23 04:49:29;;;;;;;22.25;10.77;;;-4.20;88.60;;;;;;5015477;28;20059;-80
2021/12/23 04:51:54;;;;;;;25.02;10.88;;;-4.20;88.60;;;;;;5028473;28;20037;-74
2021/12/23 04:54:20;;;;;;;23.33;11.20;;;-4.20;88.70;;;;;;5003182;28;20029;-80
2021/12/23 04:56:45;;;;;;;20.15;11.07;;;-4.20;88.60;;;;;;5026831;28;20061;-80
2021/12/23 04:59:11;;;;;;;24.38;12.25;;;-4.20;88.60;;;;;;5038764;28;20033;-79
2021/12/23 05:01:36;;;;;;;57.30;27.00;;;-4.20;88.60;;;;;;4995053;28;20416;-80
2021/12/23 05:04:02;;;;;;;36.72;18.90;;;-4.20;88.60;;;;;;5002882;28;20662;-80
2021/12/23 05:06:27;;;;;;;22.60;11.90;;;-4.10;88.60;;;;;;5029046;28;20045;-80
2021/12/23 05:08:53;;;;;;;22.98;12.32;;;-4.10;88.70;;;;;;5028559;28;20041;-80
2021/12/23 05:11:18;;;;;;;21.88;12.32;;;-4.20;88.60;;;;;;5013084;28;20061;-79
2021/12/23 05:13:47;;;;;;;21.45;11.98;;;-4.10;88.70;;;;;;5012575;28;20111;-79
2021/12/23 05:16:13;;;;;;;20.73;11.52;;;-4.10;88.80;;;;;;5008667;28;20185;-81
2021/12/23 05:18:38;;;;;;;20.08;11.23;;;-4.10;88.70;;;;;;5025869;28;20068;-80
2021/12/23 05:21:05;;;;;;;25.92;13.43;;;-4.10;88.80;;;;;;5030044;28;20060;-80
2021/12/23 05:23:31;;;;;;;62.85;27.58;;;-4.10;88.80;;;;;;5002222;28;20400;-80
2021/12/23 05:25:56;;;;;;;29.70;16.05;;;-4.10;88.80;;;;;;5015384;28;20128;-79
2021/12/23 05:28:22;;;;;;;25.65;13.60;;;-4.10;88.80;;;;;;5025567;28;20846;-80
2021/12/23 05:30:47;;;;;;;28.83;15.82;;;-4.00;88.80;;;;;;5000017;28;20029;-81
2021/12/23 05:33:13;;;;;;;23.15;13.25;;;-4.00;88.80;;;;;;5016897;28;20199;-81
2021/12/23 05:35:38;;;;;;;21.13;12.50;;;-4.00;88.80;;;;;;5013808;28;20438;-79
2021/12/23 05:38:04;;;;;;;24.27;13.18;;;-4.00;88.80;;;;;;5003805;28;20045;-79
2021/12/23 05:40:30;;;;;;;24.10;14.32;;;-4.00;88.90;;;;;;5018611;28;20036;-79
2021/12/23 05:42:56;;;;;;;25.27;13.25;;;-4.00;88.90;;;;;;5020132;28;20041;-80
2021/12/23 05:45:21;;;;;;;23.98;12.75;;;-3.90;88.90;;;;;;5020936;28;20022;-80
2021/12/23 05:47:47;;;;;;;22.10;12.30;;;-3.90;88.90;;;;;;5016976;28;20099;-79
2021/12/23 05:50:13;;;;;;;23.35;12.18;;;-3.90;89.00;;;;;;5003995;28;20082;-80
2021/12/23 05:52:39;;;;;;;22.98;12.25;;;-3.90;89.00;;;;;;5022411;28;20106;-79
2021/12/23 05:55:05;;;;;;;21.25;11.65;;;-3.90;89.00;;;;;;5006808;28;20065;-80
2021/12/23 05:57:31;;;;;;;18.92;11.15;;;-3.90;89.00;;;;;;5022226;28;20033;-80
2021/12/23 05:59:56;;;;;;;22.08;11.27;;;-3.90;89.00;;;;;;5011995;28;20088;-79
2021/12/23 06:02:22;;;;;;;22.50;11.70;;;-3.80;89.10;;;;;;5019650;28;20460;-80
2021/12/23 06:04:48;;;;;;;21.20;11.57;;;-3.80;89.10;;;;;;5021516;28;20044;-80
2021/12/23 06:07:14;;;;;;;21.95;12.15;;;-3.80;89.20;;;;;;5028101;28;20038;-80
2021/12/23 06:09:39;;;;;;;22.30;11.50;;;-3.80;89.20;;;;;;4989660;28;20038;-79
2021/12/23 06:12:05;;;;;;;20.02;12.70;;;-3.80;89.20;;;;;;5021527;28;20036;-80
2021/12/23 06:14:31;;;;;;;49.75;19.50;;;-3.80;89.20;;;;;;5022809;28;20037;-79
2021/12/23 06:16:56;;;;;;;44.55;17.70;;;-3.80;89.20;;;;;;5021640;28;20502;-80
2021/12/23 06:19:22;;;;;;;32.45;14.85;;;-3.70;89.30;;;;;;5003434;28;20041;-81
2021/12/23 06:21:47;;;;;;;46.38;19.23;;;-3.70;89.30;;;;;;5036035;28;20029;-80
2021/12/23 06:24:13;;;;;;;39.55;17.83;;;-3.70;89.30;;;;;;5025124;28;20137;-80
2021/12/23 06:26:38;;;;;;;30.50;15.05;;;-3.70;89.20;;;;;;5002468;28;20058;-79
2021/12/23 06:29:04;;;;;;;29.88;14.05;;;-3.70;89.20;;;;;;5037077;28;20029;-80
2021/12/23 06:31:30;;;;;;;30.92;14.15;;;-3.70;89.20;;;;;;5026113;28;20049;-80
2021/12/23 06:33:55;;;;;;;30.35;15.90;;;-3.70;89.20;;;;;;4996702;28;20454;-79
2021/12/23 06:36:21;;;;;;;30.40;15.10;;;-3.60;89.30;;;;;;5021897;28;20441;-81
2021/12/23 06:38:46;;;;;;;30.92;14.75;;;-3.70;89.20;;;;;;4990636;28;20029;-79
2021/12/23 06:41:12;;;;;;;25.90;13.43;;;-3.60;89.30;;;;;;5007567;28;20681;-80
2021/12/23 06:43:38;;;;;;;27.30;14.60;;;-3.60;89.30;;;;;;5019281;28;20037;-80
2021/12/23 06:46:03;;;;;;;22.17;11.90;;;-3.60;89.30;;;;;;5008427;28;20507;-79
2021/12/23 06:48:30;;;;;;;27.30;13.52;;;-3.60;89.30;;;;;;5008595;28;20490;-81
2021/12/23 06:50:56;;;;;;;24.85;12.98;;;-3.60;89.30;;;;;;5009612;28;20431;-80
2021/12/23 06:53:22;;;;;;;23.75;13.32;;;-3.60;89.30;;;;;;5041730;28;20101;-80
2021/12/23 06:55:50;;;;;;;46.05;24.67;;;-3.60;89.30;;;;;;5017222;28;20079;-79
2021/12/23 06:58:15;;;;;;;51.45;27.23;;;-3.60;89.40;;;;;;5037680;28;20029;-80
2021/12/23 07:00:41;;;;;;;32.85;18.48;;;-3.60;89.30;;;;;;4993846;28;20037;-80
2021/12/23 07:03:06;;;;;;;43.03;19.08;;;-3.60;90.00;;;;;;5037467;28;21612;-80
2021/12/23 07:05:32;;;;;;;42.30;18.88;;;-3.60;89.30;;;;;;5030099;28;20693;-79
2021/12/23 07:08:07;;;;;;;27.02;14.13;;;-3.60;89.30;;;;;;5010594;28;20037;-80
2021/12/23 07:10:33;;;;;;;25.15;12.30;;;-3.60;89.30;;;;;;5018706;28;20117;-80
2021/12/23 07:12:59;;;;;;;21.95;12.20;;;-3.60;89.30;;;;;;5004325;28;20075;-81
2021/12/23 07:15:25;;;;;;;20.67;11.60;;;-3.60;89.30;;;;;;5020791;28;20123;-79
2021/12/23 07:17:52;;;;;;;31.08;14.20;;;-3.70;89.30;;;;;;5019761;28;20124;-80
2021/12/23 07:20:17;;;;;;;23.77;14.25;;;-3.70;89.40;;;;;;5010863;28;20037;-80
2021/12/23 07:22:43;;;;;;;30.52;14.40;;;-3.70;89.30;;;;;;5009344;28;20129;-80
2021/12/23 07:25:09;;;;;;;25.83;14.77;;;-3.60;89.30;;;;;;5004956;28;20690;-79
2021/12/23 07:27:34;;;;;;;26.42;13.02;;;-3.60;89.40;;;;;;5005812;28;20090;-81
2021/12/23 07:30:00;;;;;;;25.88;13.88;;;-3.70;89.40;;;;;;5021067;28;20034;-79
2021/12/23 07:32:25;;;;;;;25.27;13.65;;;-3.60;89.40;;;;;;5018478;28;20034;-80
2021/12/23 07:34:51;;;;;;;40.88;19.92;;;-3.60;89.50;;;;;;5020352;28;20644;-80
2021/12/23 07:37:17;;;;;;;42.47;20.15;;;-3.60;89.40;;;;;;5023684;28;20030;-80
2021/12/23 07:39:42;;;;;;;34.67;18.05;;;-3.60;89.50;;;;;;5017011;28;20063;-79
2021/12/23 07:42:14;;;;;;;33.15;16.92;;;-3.60;89.50;;;;;;4994348;28;20041;-78
2021/12/23 07:44:39;;;;;;;34.65;19.20;;;-3.60;89.40;;;;;;5008254;28;20044;-78
2021/12/23 07:47:05;;;;;;;37.75;19.02;;;-3.60;89.40;;;;;;5017144;28;20038;-80
2021/12/23 07:49:31;;;;;;;30.33;15.57;;;-3.60;89.30;;;;;;5022012;28;20037;-79
2021/12/23 07:51:56;;;;;;;32.80;15.57;;;-3.60;89.40;;;;;;5004482;28;20041;-79
2021/12/23 07:54:22;;;;;;;27.02;15.18;;;-3.60;89.40;;;;;;5016949;28;20037;-79
2021/12/23 07:56:47;;;;;;;35.33;16.85;;;-3.50;89.50;;;;;;4994457;28;20043;-79
2021/12/23 07:59:13;;;;;;;29.13;15.02;;;-3.50;90.00;;;;;;5043171;28;20037;-79
2021/12/23 08:01:39;;;;;;;26.30;14.75;;;-3.50;89.60;;;;;;4999843;28;20072;-80
2021/12/23 08:04:05;;;;;;;26.80;13.32;;;-3.50;89.50;;;;;;4993787;28;20644;-79
2021/12/23 08:06:30;;;;;;;26.35;14.07;;;-3.50;89.60;;;;;;5012221;28;20037;-78
2021/12/23 08:08:56;;;;;;;27.45;13.48;;;-3.50;89.60;;;;;;5047681;28;20065;-78
2021/12/23 08:11:21;;;;;;;25.40;13.52;;;-3.40;89.70;;;;;;5013525;28;20064;-78
2021/12/23 08:13:47;;;;;;;20.02;11.85;;;-3.40;89.60;;;;;;5004674;28;20037;-78
2021/12/23 08:16:12;;;;;;;28.08;13.20;;;-3.40;89.70;;;;;;5013845;28;20043;-78
2021/12/23 08:18:38;;;;;;;25.27;13.70;;;-3.40;90.20;;;;;;5027994;28;20068;-78
2021/12/23 08:21:04;;;;;;;37.75;18.80;;;-3.30;89.70;;;;;;5024216;28;20139;-78
2021/12/23 08:23:29;;;;;;;32.92;16.58;;;-3.30;89.70;;;;;;5017214;28;20045;-79
2021/12/23 08:25:55;;;;;;;38.08;19.75;;;-3.30;89.70;;;;;;5017780;28;20040;-78
2021/12/23 08:28:21;;;;;;;30.48;16.75;;;-3.30;89.80;;;;;;5002328;28;20068;-78
2021/12/23 08:30:46;;;;;;;30.85;16.02;;;-3.30;89.70;;;;;;5000529;28;20056;-78
2021/12/23 08:33:12;;;;;;;35.90;17.08;;;-3.20;89.80;;;;;;5014994;28;20048;-78
2021/12/23 08:35:38;;;;;;;36.78;19.85;;;-3.20;89.80;;;;;;4976790;28;20064;-79
2021/12/23 08:38:04;;;;;;;41.17;21.67;;;-3.20;89.70;;;;;;5026222;28;20033;-79
2021/12/23 08:40:29;;;;;;;41.55;20.42;;;-3.20;89.70;;;;;;4999283;28;20702;-79
2021/12/23 08:42:56;;;;;;;38.50;20.27;;;-3.10;89.80;;;;;;5004114;28;20044;-79
2021/12/23 08:45:22;;;;;;;28.63;15.52;;;-3.10;89.80;;;;;;5022556;28;20293;-78
2021/12/23 08:47:48;;;;;;;26.25;14.82;;;-3.10;89.70;;;;;;5015565;28;20738;-80
2021/12/23 08:50:14;;;;;;;38.15;17.58;;;-3.10;89.80;;;;;;4985909;28;20769;-80
2021/12/23 08:52:40;;;;;;;36.47;18.13;;;-3.10;89.80;;;;;;5040454;28;20028;-79
2021/12/23 08:55:06;;;;;;;35.15;18.00;;;-3.00;89.80;;;;;;5017640;28;20034;-79
2021/12/23 08:57:32;;;;;;;34.45;18.52;;;-3.00;89.80;;;;;;5019333;28;20045;-79
2021/12/23 08:59:57;;;;;;;34.00;18.17;;;-3.00;89.70;;;;;;5019578;28;20064;-79
2021/12/23 09:02:23;;;;;;;35.38;18.80;;;-2.90;89.90;;;;;;4999605;28;20412;-80
2021/12/23 09:04:48;;;;;;;31.48;17.63;;;-2.90;89.80;;;;;;5000008;28;20422;-79
2021/12/23 09:07:14;;;;;;;34.33;17.73;;;-2.90;89.80;;;;;;5022562;28;20030;-80
2021/12/23 09:09:40;;;;;;;34.22;17.90;;;-2.80;89.80;;;;;;5000347;28;20091;-76
2021/12/23 09:12:07;;;;;;;33.28;18.45;;;-2.80;89.80;;;;;;5008644;28;20117;-80
2021/12/23 09:14:33;;;;;;;32.58;18.80;;;-2.70;89.90;;;;;;5023931;28;20040;-78
2021/12/23 09:16:58;;;;;;;34.78;17.58;;;-2.70;89.90;;;;;;5015857;28;20062;-80
2021/12/23 09:19:24;;;;;;;31.55;16.13;;;-2.60;90.00;;;;;;5021330;28;20057;-78
2021/12/23 09:21:49;;;;;;;29.75;15.88;;;-2.60;90.00;;;;;;5003957;28;20068;-79
2021/12/23 09:24:15;;;;;;;36.00;17.70;;;-2.60;89.90;;;;;;4996766;28;20044;-79
2021/12/23 09:26:51;;;;;;;32.80;16.83;;;-2.50;89.90;;;;;;5033451;28;20030;-80
2021/12/23 09:34:46;;;;;;;30.52;17.08;;;-2.50;89.90;;;;;;5032198;28;20674;-80
2021/12/23 09:37:11;;;;;;;36.42;18.73;;;-2.50;89.80;;;;;;5033191;28;20573;-79
2021/12/23 09:39:37;;;;;;;33.65;17.05;;;-2.40;90.00;;;;;;5001403;28;20041;-79
2021/12/23 09:42:03;;;;;;;33.40;17.70;;;-2.40;90.00;;;;;;5012259;28;20033;-80
2021/12/23 09:44:29;;;;;;;34.58;16.88;;;-2.30;90.00;;;;;;5021843;28;20048;-79
2021/12/23 09:46:57;;;;;;;32.08;16.67;;;-2.30;90.00;;;;;;5005163;28;20052;-79
2021/12/23 09:49:23;;;;;;;34.40;17.02;;;-2.30;90.00;;;;;;4988491;28;20029;-79
2021/12/23 09:51:48;;;;;;;34.65;17.45;;;-2.30;90.00;;;;;;4989217;28;20045;-78
2021/12/23 09:54:14;;;;;;;31.05;15.45;;;-2.20;90.30;;;;;;5033605;28;20059;-79
2021/12/23 09:56:39;;;;;;;31.23;16.27;;;-2.20;90.00;;;;;;4999614;28;20040;-79
2021/12/23 09:59:07;;;;;;;34.72;16.20;;;-2.20;90.00;;;;;;5013769;28;20068;-78
2021/12/23 10:01:32;;;;;;;32.85;16.25;;;-2.10;90.00;;;;;;5021347;28;20038;-79
2021/12/23 10:03:58;;;;;;;58.30;25.10;;;-2.10;90.00;;;;;;5009173;28;20136;-78
2021/12/23 10:06:25;;;;;;;47.45;21.63;;;-2.00;90.00;;;;;;5035860;28;20029;-80
2021/12/23 10:08:50;;;;;;;42.95;22.38;;;-2.00;90.00;;;;;;5002996;28;20041;-79
2021/12/23 10:30:31;;;;;;;33.72;16.80;;;-1.80;89.90;;;;;;5014816;28;20178;-78
2021/12/23 10:38:19;;;;;;;33.65;16.73;;;-1.70;90.00;;;;;;5013922;28;20044;-79
2021/12/23 10:40:47;;;;;;;30.73;16.73;;;-1.70;89.90;;;;;;5045061;28;20035;-79
2021/12/23 10:43:29;;;;;;;30.00;16.48;;;-1.60;90.00;;;;;;5016105;28;20092;-78
2021/12/23 10:46:03;;;;;;;39.97;19.98;;;-1.60;90.00;;;;;;5022598;28;20045;-79
2021/12/23 10:48:31;;;;;;;31.67;17.15;;;-1.50;90.00;;;;;;5023407;28;20149;-80
2021/12/23 10:51:02;;;;;;;37.45;18.73;;;-1.50;90.00;;;;;;5012737;28;20029;-80
2021/12/23 10:59:12;;;;;;;35.47;17.30;;;-1.30;90.00;;;;;;5019755;28;20407;-79
2021/12/23 11:02:10;;;;;;;36.15;17.65;;;-1.30;89.90;;;;;;5018174;28;20036;-79
2021/12/23 11:05:14;;;;;;;30.80;16.65;;;-1.30;89.90;;;;;;5005587;28;20531;-78
2021/12/23 11:07:58;;;;;;;44.67;20.27;;;-1.20;89.90;;;;;;5006503;28;20075;-79
2021/12/23 11:11:15;;;;;;;39.17;19.13;;;-1.20;89.80;;;;;;5021867;28;20028;-79
2021/12/23 11:41:13;;;;;;;43.15;19.85;;;-0.90;89.50;;;;;;5037965;28;20036;-80
2021/12/23 11:43:53;;;;;;;34.55;15.98;;;-0.80;89.50;;;;;;5016938;28;20046;-79
2021/12/23 11:46:38;;;;;;;39.20;19.13;;;-0.80;89.50;;;;;;5001739;28;20025;-79
2021/12/23 11:49:07;;;;;;;38.70;18.55;;;-0.70;89.50;;;;;;5006796;28;20043;-79
2021/12/23 11:51:55;;;;;;;32.42;16.77;;;-0.70;89.50;;;;;;5002318;28;20037;-79
2021/12/23 11:54:30;;;;;;;33.50;17.08;;;-0.70;89.40;;;;;;5005265;28;20022;-79
2021/12/23 11:57:03;;;;;;;39.28;19.65;;;-0.60;89.50;;;;;;5014058;28;20037;-78
2021/12/23 11:59:28;;;;;;;37.72;18.05;;;-0.60;89.40;;;;;;5014089;28;20041;-79
2021/12/23 12:01:54;;;;;;;39.00;18.80;;;-0.60;90.00;;;;;;5017772;28;20669;-78
2021/12/23 12:04:27;;;;;;;42.83;19.52;;;-0.50;89.40;;;;;;5017836;28;20037;-79
2021/12/23 12:06:53;;;;;;;39.75;20.33;;;-0.50;89.30;;;;;;5027341;28;20144;-79
2021/12/23 12:09:28;;;;;;;38.08;18.55;;;-0.50;89.30;;;;;;4999299;28;20452;-79
2021/12/23 12:11:59;;;;;;;34.92;17.25;;;-0.40;89.30;;;;;;5016792;28;20037;-79
2021/12/23 12:14:34;;;;;;;;;;;-0.40;89.30;;;;;;5024338;28;20606;-79
2021/12/23 12:17:30;;;;;;;38.90;18.83;;;-0.40;89.20;;;;;;5013692;28;20008;-80
2021/12/23 12:20:05;;;;;;;38.40;17.85;;;-0.30;89.20;;;;;;5033738;28;20037;-79
2021/12/23 12:22:56;;;;;;;39.45;18.85;;;-0.30;89.10;;;;;;5018482;28;20061;-79
2021/12/23 12:25:24;;;;;;;;;;;-0.30;89.90;;;;;;5008259;28;20036;-80
2021/12/23 12:27:51;;;;;;;37.08;17.95;;;-0.30;89.10;;;;;;5038825;28;19913;-79
2021/12/23 12:30:21;;;;;;;36.58;17.95;;;-0.30;89.00;;;;;;5002747;28;20401;-79
2021/12/23 12:32:46;;;;;;;33.08;17.92;;;-0.20;89.10;;;;;;5007414;28;20029;-80
2021/12/23 12:35:19;;;;;;;36.75;18.58;;;-0.20;89.10;;;;;;5037735;28;20695;-79
2021/12/23 12:37:45;;;;;;;30.67;16.42;;;-0.10;89.10;;;;;;4998112;28;20041;-79
2021/12/23 12:40:10;;;;;;;41.42;19.65;;;-0.10;89.10;;;;;;4989294;28;20601;-78
2021/12/23 12:42:40;;;;;;;43.60;20.95;;;-0.10;89.10;;;;;;5013410;28;20042;-79
2021/12/23 12:45:12;;;;;;;53.35;24.90;;;-0.10;89.00;;;;;;4985730;28;20058;-81
2021/12/23 12:47:47;;;;;;;59.85;25.65;;;-0.10;89.00;;;;;;5006724;28;20044;-79
2021/12/23 12:50:17;;;;;;;48.63;22.55;;;0.00;89.00;;;;;;5022254;28;20041;-79
2021/12/23 12:52:45;;;;;;;41.33;19.35;;;0.00;89.00;;;;;;5000370;28;20029;-79
2021/12/23 12:55:22;;;;;;;38.45;19.25;;;0.00;88.90;;;;;;4997255;28;20037;-80
2021/12/23 12:57:56;;;;;;;36.15;17.20;;;0.10;89.00;;;;;;5031682;28;20046;-79
2021/12/23 13:00:37;;;;;;;31.77;16.10;;;0.00;88.90;;;;;;4990465;28;20129;-79
2021/12/23 13:03:03;;;;;;;36.08;17.75;;;0.10;88.90;;;;;;5002190;28;20049;-80
2021/12/23 13:05:40;;;;;;;34.85;17.75;;;0.10;89.00;;;;;;5014663;28;20042;-79
2021/12/23 13:08:29;;;;;;;35.20;18.55;;;0.10;88.90;;;;;;5029546;28;20022;-79
2021/12/23 13:11:07;;;;;;;34.50;17.45;;;0.10;88.80;;;;;;5015743;28;20037;-80
2021/12/23 13:13:36;;;;;;;38.63;18.00;;;0.20;88.90;;;;;;4994717;28;20045;-79
2021/12/23 13:16:06;;;;;;;31.95;17.27;;;0.20;88.80;;;;;;5019567;28;20746;-78
2021/12/23 13:18:32;;;;;;;34.60;17.17;;;0.20;88.80;;;;;;5019722;28;20074;-79
2021/12/23 13:21:04;;;;;;;36.10;18.55;;;0.20;88.80;;;;;;4993772;28;20097;-79
2021/12/23 13:23:40;;;;;;;33.83;17.30;;;0.30;88.80;;;;;;5027305;28;20050;-79
2021/12/23 13:26:09;;;;;;;28.00;14.88;;;0.30;88.80;;;;;;5017228;28;20233;-79
2021/12/23 13:28:48;;;;;;;34.28;18.13;;;0.30;88.80;;;;;;5008600;28;20037;-78
2021/12/23 13:31:18;;;;;;;32.65;16.73;;;0.30;88.80;;;;;;5018028;28;20072;-79
2021/12/23 13:33:46;;;;;;;33.38;17.63;;;0.30;89.10;;;;;;5017366;28;20045;-78
2021/12/23 13:36:17;;;;;;;34.15;17.02;;;0.30;88.70;;;;;;5023479;28;20072;-79
2021/12/23 13:38:42;;;;;;;30.77;17.63;;;0.30;88.70;;;;;;4968386;28;20134;-79
2021/12/23 13:41:20;;;;;;;30.73;16.95;;;0.40;88.70;;;;;;5018219;28;20080;-78
2021/12/23 13:43:46;;;;;;;34.40;16.63;;;0.40;88.60;;;;;;5006216;28;20699;-79
2021/12/23 13:46:11;;;;;;;32.13;17.92;;;0.50;88.70;;;;;;5003688;28;20053;-79